Data Viewer
| City | State | Eastern Time | Source | 1 Hour Temp Max | 1 Hour Temp Min | 1 Hour Dew Point Max | 1 Hour Dew Point Min | 1 Hour RH Max | 1 Hour RH Min | 1 Hour BP Max | 1 Hour BP Min | 1 Hour Precip | 1 Hour Wind Max | 1 Hour Wind Max Dir |
|---|---|---|---|---|---|---|---|---|---|---|---|---|---|---|
| Egg Harbor Twp. | NJ | 2026-05-07 02:00 | Mesonet | 64 | 62 | 62 | 60 | 95 | 92 | 29.78 | 29.75 | 0.00 | 0 | S |
| Egg Harbor Twp. | NJ | 2026-05-07 15:00 | Mesonet | 63 | 58 | 48 | 42 | 69 | 49 | 29.81 | 29.79 | 0.00 | 12 | NNE |
| Egg Harbor Twp. | NJ | 2026-05-08 00:00 | Mesonet | 49 | 48 | 48 | 47 | 97 | 94 | 29.83 | 29.82 | 0.00 | 3 | S |
| Egg Harbor Twp. | NJ | 2026-05-07 23:00 | Mesonet | 49 | 48 | 48 | 47 | 98 | 95 | 29.83 | 29.82 | 0.00 | 0 | S |
| Egg Harbor Twp. | NJ | 2026-05-07 22:00 | Mesonet | 52 | 49 | 49 | 48 | 95 | 88 | 29.82 | 29.81 | 0.00 | 0 | S |
| Egg Harbor Twp. | NJ | 2026-05-07 21:00 | Mesonet | 54 | 52 | 51 | 49 | 90 | 86 | 29.81 | 29.79 | 0.00 | 6 | S |
| Egg Harbor Twp. | NJ | 2026-05-07 20:00 | Mesonet | 56 | 54 | 51 | 50 | 89 | 83 | 29.80 | 29.78 | 0.00 | 11 | S |
| Egg Harbor Twp. | NJ | 2026-05-07 19:00 | Mesonet | 57 | 55 | 51 | 50 | 84 | 80 | 29.80 | 29.78 | 0.00 | 14 | S |
| Egg Harbor Twp. | NJ | 2026-05-07 18:00 | Mesonet | 58 | 55 | 51 | 48 | 81 | 75 | 29.80 | 29.77 | 0.00 | 15 | WNW |
| Egg Harbor Twp. | NJ | 2026-05-07 17:00 | Mesonet | 60 | 57 | 50 | 48 | 76 | 65 | 29.78 | 29.76 | 0.00 | 11 | ENE |
| Egg Harbor Twp. | NJ | 2026-05-07 16:00 | Mesonet | 59 | 56 | 51 | 46 | 77 | 66 | 29.80 | 29.77 | 0.00 | 12 | NNE |
| Egg Harbor Twp. | NJ | 2026-05-07 14:00 | Mesonet | 61 | 58 | 46 | 42 | 62 | 51 | 29.83 | 29.81 | 0.00 | 10 | NE |
| Egg Harbor Twp. | NJ | 2026-05-07 03:00 | Mesonet | 64 | 57 | 62 | 56 | 96 | 90 | 29.81 | 29.77 | 0.03 | 13 | WNW |
| Egg Harbor Twp. | NJ | 2026-05-07 13:00 | Mesonet | 59 | 57 | 46 | 42 | 64 | 57 | 29.86 | 29.83 | 0.00 | 7 | NNE |
| Egg Harbor Twp. | NJ | 2026-05-07 12:00 | Mesonet | 57 | 56 | 48 | 43 | 72 | 60 | 29.87 | 29.86 | 0.00 | 8 | ENE |
| Egg Harbor Twp. | NJ | 2026-05-07 11:00 | Mesonet | 56 | 54 | 48 | 45 | 78 | 69 | 29.89 | 29.87 | 0.00 | 9 | N |
| Egg Harbor Twp. | NJ | 2026-05-07 10:00 | Mesonet | 55 | 54 | 49 | 46 | 81 | 74 | 29.89 | 29.87 | 0.00 | 11 | NE |
| Egg Harbor Twp. | NJ | 2026-05-07 09:00 | Mesonet | 54 | 52 | 49 | 47 | 85 | 79 | 29.88 | 29.87 | 0.00 | 9 | ENE |
| Egg Harbor Twp. | NJ | 2026-05-07 08:00 | Mesonet | 52 | 51 | 49 | 47 | 89 | 85 | 29.87 | 29.85 | 0.00 | 8 | NNE |
| Egg Harbor Twp. | NJ | 2026-05-07 07:00 | Mesonet | 52 | 52 | 50 | 48 | 94 | 88 | 29.86 | 29.83 | 0.00 | 9 | NNW |
| Egg Harbor Twp. | NJ | 2026-05-07 06:00 | Mesonet | 52 | 52 | 50 | 50 | 94 | 93 | 29.84 | 29.82 | 0.00 | 9 | WNW |
| Egg Harbor Twp. | NJ | 2026-05-07 05:00 | Mesonet | 53 | 52 | 53 | 50 | 98 | 92 | 29.82 | 29.81 | 0.00 | 16 | ESE |
| Egg Harbor Twp. | NJ | 2026-05-07 04:00 | Mesonet | 57 | 53 | 56 | 53 | 99 | 96 | 29.82 | 29.78 | 0.02 | 13 | S |
| Egg Harbor Twp. | NJ | 2026-05-08 01:00 | Mesonet | 49 | 48 | 48 | 47 | 95 | 94 | 29.83 | 29.82 | 0.00 | 2 | S |
data collection created in 0.0079641342163086 (queried in 0.001994) rendered in: 6.5803527832031E-5

